Portada
METAR-TAF:

METAR-TAF

Aeroports :

Adrar, Algèria

latitud: 27-53N, longitud: 000-17W, altitud: 263 m

Observació

L'informe es va fer fa 1 hora i 5 minuts, a les 04:00 UTC
Vent 6 kt del Nord-Est
Temperatura 6°C
Humitat 52%
Pressió 1023 hPa
Visibilitat 10 km o més
sense núvols per sota de 1500 mi sense presència de cumulonimbus.

METAR: DAUA 110400Z 05006KT CAVOK 06/M03 Q1023

Hora: 06:05 (05:05 UTC)

Pronòstic

L'informe es va fer fa 6 hores i 5 minuts, a les 23:00 UTC
Pronòstic vàlid del 11 a les 00 UTC al 11 a les 24 UTC
Vent 10 kt del Nord-Est
Visibilitat 10 km o més
sense núvols per sota de 1500 mi sense presència de cumulonimbus.

TAF: DAUA 102300Z 1100/1124 04010KT CAVOK

Observacions i pronòstics meteorològics de més de 4000 aeroports (METAR i TAF).

Les estacions disponibles són els punts grocs i vermells al mapa.

Posi el ratolí al punt desitjat per veure el nom de l'estació.

Feu clic per veure les observacions i els pronòstics meteorològics.

Per canviar el mapa: feu clic els botons verds amb una creu de color negre per apropar; al botó verd amb un guió per allunyar la imatge; o en les fletxes verdes per a mapes adjacents.


METAR-TAF: